sensor_id;sensor_type;location;lat;lon;timestamp;P1;durP1;ratioP1;P2;durP2;ratioP2
58518;SDS011;44310;48.106;12.008;2023-04-16T00:02:06;0.20;;;0.20;;
58518;SDS011;44310;48.106;12.008;2023-04-16T00:04:33;0.20;;;0.20;;
58518;SDS011;44310;48.106;12.008;2023-04-16T00:07:00;0.20;;;0.20;;
58518;SDS011;44310;48.106;12.008;2023-04-16T00:09:28;0.20;;;0.20;;
58518;SDS011;44310;48.106;12.008;2023-04-16T00:11:55;0.20;;;0.20;;
58518;SDS011;44310;48.106;12.008;2023-04-16T00:14:22;0.30;;;0.30;;
58518;SDS011;44310;48.106;12.008;2023-04-16T00:16:49;0.20;;;0.20;;
58518;SDS011;44310;48.106;12.008;2023-04-16T00:19:16;0.30;;;0.30;;
58518;SDS011;44310;48.106;12.008;2023-04-16T00:21:43;0.30;;;0.30;;
58518;SDS011;44310;48.106;12.008;2023-04-16T00:24:10;0.20;;;0.20;;
58518;SDS011;44310;48.106;12.008;2023-04-16T00:26:37;0.30;;;0.30;;
58518;SDS011;44310;48.106;12.008;2023-04-16T00:29:06;0.25;;;0.25;;
58518;SDS011;44310;48.106;12.008;2023-04-16T00:31:34;0.30;;;0.30;;
58518;SDS011;44310;48.106;12.008;2023-04-16T00:34:02;0.20;;;0.20;;
58518;SDS011;44310;48.106;12.008;2023-04-16T00:36:29;0.20;;;0.20;;
58518;SDS011;44310;48.106;12.008;2023-04-16T00:38:56;0.20;;;0.20;;
58518;SDS011;44310;48.106;12.008;2023-04-16T00:41:23;0.20;;;0.20;;
58518;SDS011;44310;48.106;12.008;2023-04-16T00:43:51;0.20;;;0.20;;
58518;SDS011;44310;48.106;12.008;2023-04-16T00:46:18;0.30;;;0.30;;
58518;SDS011;44310;48.106;12.008;2023-04-16T00:48:49;0.20;;;0.20;;
58518;SDS011;44310;48.106;12.008;2023-04-16T00:51:18;0.20;;;0.20;;
58518;SDS011;44310;48.106;12.008;2023-04-16T00:53:47;0.20;;;0.20;;
58518;SDS011;44310;48.106;12.008;2023-04-16T00:56:14;0.30;;;0.30;;
58518;SDS011;44310;48.106;12.008;2023-04-16T00:58:43;0.30;;;0.30;;
58518;SDS011;44310;48.106;12.008;2023-04-16T01:01:10;0.30;;;0.30;;
58518;SDS011;44310;48.106;12.008;2023-04-16T01:03:42;0.30;;;0.30;;
58518;SDS011;44310;48.106;12.008;2023-04-16T01:06:10;0.30;;;0.30;;
58518;SDS011;44310;48.106;12.008;2023-04-16T01:08:38;0.22;;;0.22;;
58518;SDS011;44310;48.106;12.008;2023-04-16T01:11:06;0.20;;;0.20;;
58518;SDS011;44310;48.106;12.008;2023-04-16T01:13:33;0.20;;;0.20;;
58518;SDS011;44310;48.106;12.008;2023-04-16T01:16:08;0.20;;;0.20;;
58518;SDS011;44310;48.106;12.008;2023-04-16T01:18:37;0.20;;;0.20;;
58518;SDS011;44310;48.106;12.008;2023-04-16T01:21:04;0.20;;;0.20;;
58518;SDS011;44310;48.106;12.008;2023-04-16T01:23:32;0.30;;;0.30;;
58518;SDS011;44310;48.106;12.008;2023-04-16T01:25:59;0.20;;;0.20;;
58518;SDS011;44310;48.106;12.008;2023-04-16T01:28:26;0.20;;;0.20;;
58518;SDS011;44310;48.106;12.008;2023-04-16T01:30:53;0.20;;;0.20;;
58518;SDS011;44310;48.106;12.008;2023-04-16T01:33:21;0.20;;;0.20;;
58518;SDS011;44310;48.106;12.008;2023-04-16T01:35:48;0.20;;;0.20;;
58518;SDS011;44310;48.106;12.008;2023-04-16T01:38:15;0.20;;;0.20;;
58518;SDS011;44310;48.106;12.008;2023-04-16T01:40:42;0.20;;;0.20;;
58518;SDS011;44310;48.106;12.008;2023-04-16T01:43:09;0.28;;;0.28;;
58518;SDS011;44310;48.106;12.008;2023-04-16T01:45:36;0.22;;;0.22;;
58518;SDS011;44310;48.106;12.008;2023-04-16T01:48:04;0.20;;;0.20;;
58518;SDS011;44310;48.106;12.008;2023-04-16T01:50:31;0.20;;;0.20;;
58518;SDS011;44310;48.106;12.008;2023-04-16T01:52:58;0.20;;;0.20;;
58518;SDS011;44310;48.106;12.008;2023-04-16T01:55:27;0.30;;;0.30;;
58518;SDS011;44310;48.106;12.008;2023-04-16T01:57:54;0.30;;;0.30;;
58518;SDS011;44310;48.106;12.008;2023-04-16T02:00:21;0.30;;;0.30;;
58518;SDS011;44310;48.106;12.008;2023-04-16T02:02:48;0.20;;;0.20;;
58518;SDS011;44310;48.106;12.008;2023-04-16T02:05:16;0.20;;;0.20;;
58518;SDS011;44310;48.106;12.008;2023-04-16T02:07:43;0.30;;;0.30;;
58518;SDS011;44310;48.106;12.008;2023-04-16T02:10:10;0.20;;;0.20;;
58518;SDS011;44310;48.106;12.008;2023-04-16T02:12:37;0.30;;;0.30;;
58518;SDS011;44310;48.106;12.008;2023-04-16T02:15:04;0.20;;;0.20;;
58518;SDS011;44310;48.106;12.008;2023-04-16T02:17:32;0.20;;;0.20;;
58518;SDS011;44310;48.106;12.008;2023-04-16T02:19:59;0.30;;;0.30;;
58518;SDS011;44310;48.106;12.008;2023-04-16T02:22:28;0.20;;;0.20;;
58518;SDS011;44310;48.106;12.008;2023-04-16T02:24:56;0.20;;;0.20;;
58518;SDS011;44310;48.106;12.008;2023-04-16T02:27:23;0.20;;;0.20;;
58518;SDS011;44310;48.106;12.008;2023-04-16T02:29:50;0.20;;;0.20;;
58518;SDS011;44310;48.106;12.008;2023-04-16T02:32:17;0.20;;;0.20;;
58518;SDS011;44310;48.106;12.008;2023-04-16T02:34:44;0.20;;;0.20;;
58518;SDS011;44310;48.106;12.008;2023-04-16T02:37:11;0.20;;;0.20;;
58518;SDS011;44310;48.106;12.008;2023-04-16T02:39:40;0.20;;;0.20;;
58518;SDS011;44310;48.106;12.008;2023-04-16T02:42:09;0.23;;;0.23;;
58518;SDS011;44310;48.106;12.008;2023-04-16T02:44:36;0.20;;;0.20;;
58518;SDS011;44310;48.106;12.008;2023-04-16T02:47:03;0.20;;;0.20;;
58518;SDS011;44310;48.106;12.008;2023-04-16T02:49:30;0.20;;;0.20;;
58518;SDS011;44310;48.106;12.008;2023-04-16T02:51:57;0.20;;;0.20;;
58518;SDS011;44310;48.106;12.008;2023-04-16T02:54:24;0.20;;;0.20;;
58518;SDS011;44310;48.106;12.008;2023-04-16T02:56:52;0.20;;;0.20;;
58518;SDS011;44310;48.106;12.008;2023-04-16T02:59:19;0.20;;;0.20;;
58518;SDS011;44310;48.106;12.008;2023-04-16T03:01:46;0.20;;;0.20;;
58518;SDS011;44310;48.106;12.008;2023-04-16T03:04:13;0.30;;;0.30;;
58518;SDS011;44310;48.106;12.008;2023-04-16T03:06:40;0.30;;;0.30;;
58518;SDS011;44310;48.106;12.008;2023-04-16T03:09:07;0.20;;;0.20;;
58518;SDS011;44310;48.106;12.008;2023-04-16T03:11:35;0.20;;;0.20;;
58518;SDS011;44310;48.106;12.008;2023-04-16T03:14:02;0.20;;;0.20;;
58518;SDS011;44310;48.106;12.008;2023-04-16T03:16:29;0.30;;;0.30;;
58518;SDS011;44310;48.106;12.008;2023-04-16T03:18:56;0.20;;;0.20;;
58518;SDS011;44310;48.106;12.008;2023-04-16T03:21:23;0.20;;;0.20;;
58518;SDS011;44310;48.106;12.008;2023-04-16T03:23:53;0.30;;;0.30;;
58518;SDS011;44310;48.106;12.008;2023-04-16T03:26:21;0.20;;;0.20;;
58518;SDS011;44310;48.106;12.008;2023-04-16T03:28:48;0.20;;;0.20;;
58518;SDS011;44310;48.106;12.008;2023-04-16T03:31:15;0.27;;;0.27;;
58518;SDS011;44310;48.106;12.008;2023-04-16T03:33:42;0.20;;;0.20;;
58518;SDS011;44310;48.106;12.008;2023-04-16T03:36:09;0.20;;;0.20;;
58518;SDS011;44310;48.106;12.008;2023-04-16T03:38:37;0.20;;;0.20;;
58518;SDS011;44310;48.106;12.008;2023-04-16T03:41:04;0.20;;;0.20;;
58518;SDS011;44310;48.106;12.008;2023-04-16T03:43:31;0.20;;;0.20;;
58518;SDS011;44310;48.106;12.008;2023-04-16T03:45:58;0.20;;;0.20;;
58518;SDS011;44310;48.106;12.008;2023-04-16T03:48:25;0.20;;;0.20;;
58518;SDS011;44310;48.106;12.008;2023-04-16T03:50:52;0.20;;;0.20;;
58518;SDS011;44310;48.106;12.008;2023-04-16T03:53:19;0.20;;;0.20;;
58518;SDS011;44310;48.106;12.008;2023-04-16T03:55:48;0.20;;;0.20;;
58518;SDS011;44310;48.106;12.008;2023-04-16T03:58:19;0.20;;;0.20;;
58518;SDS011;44310;48.106;12.008;2023-04-16T04:00:46;0.30;;;0.30;;
58518;SDS011;44310;48.106;12.008;2023-04-16T04:03:13;0.30;;;0.30;;
58518;SDS011;44310;48.106;12.008;2023-04-16T04:05:44;0.25;;;0.25;;
58518;SDS011;44310;48.106;12.008;2023-04-16T04:08:11;0.30;;;0.30;;
58518;SDS011;44310;48.106;12.008;2023-04-16T04:10:38;0.20;;;0.20;;
58518;SDS011;44310;48.106;12.008;2023-04-16T04:13:06;0.20;;;0.20;;
58518;SDS011;44310;48.106;12.008;2023-04-16T04:15:33;0.20;;;0.20;;
58518;SDS011;44310;48.106;12.008;2023-04-16T04:18:00;0.30;;;0.30;;
58518;SDS011;44310;48.106;12.008;2023-04-16T04:20:27;0.30;;;0.30;;
58518;SDS011;44310;48.106;12.008;2023-04-16T04:22:54;0.30;;;0.30;;
58518;SDS011;44310;48.106;12.008;2023-04-16T04:25:21;0.30;;;0.30;;
58518;SDS011;44310;48.106;12.008;2023-04-16T04:27:49;0.30;;;0.30;;
58518;SDS011;44310;48.106;12.008;2023-04-16T04:30:16;0.30;;;0.30;;
58518;SDS011;44310;48.106;12.008;2023-04-16T04:32:43;0.30;;;0.30;;
58518;SDS011;44310;48.106;12.008;2023-04-16T04:35:10;0.30;;;0.30;;
58518;SDS011;44310;48.106;12.008;2023-04-16T04:37:37;0.30;;;0.30;;
58518;SDS011;44310;48.106;12.008;2023-04-16T04:40:05;0.30;;;0.30;;
58518;SDS011;44310;48.106;12.008;2023-04-16T04:42:32;0.30;;;0.30;;
58518;SDS011;44310;48.106;12.008;2023-04-16T04:44:59;0.20;;;0.20;;
58518;SDS011;44310;48.106;12.008;2023-04-16T04:47:26;0.30;;;0.30;;
58518;SDS011;44310;48.106;12.008;2023-04-16T04:49:54;0.20;;;0.20;;
58518;SDS011;44310;48.106;12.008;2023-04-16T04:52:21;0.20;;;0.20;;
58518;SDS011;44310;48.106;12.008;2023-04-16T04:54:48;0.40;;;0.40;;
58518;SDS011;44310;48.106;12.008;2023-04-16T04:57:15;0.20;;;0.20;;
58518;SDS011;44310;48.106;12.008;2023-04-16T04:59:42;0.30;;;0.30;;
58518;SDS011;44310;48.106;12.008;2023-04-16T05:02:09;0.20;;;0.20;;
58518;SDS011;44310;48.106;12.008;2023-04-16T05:04:36;0.20;;;0.20;;
58518;SDS011;44310;48.106;12.008;2023-04-16T05:07:03;0.20;;;0.20;;
58518;SDS011;44310;48.106;12.008;2023-04-16T05:09:32;0.20;;;0.20;;
58518;SDS011;44310;48.106;12.008;2023-04-16T05:11:59;0.20;;;0.20;;
58518;SDS011;44310;48.106;12.008;2023-04-16T05:14:26;0.20;;;0.20;;
58518;SDS011;44310;48.106;12.008;2023-04-16T05:16:53;0.20;;;0.20;;
58518;SDS011;44310;48.106;12.008;2023-04-16T05:19:21;0.20;;;0.20;;
58518;SDS011;44310;48.106;12.008;2023-04-16T05:21:48;0.20;;;0.20;;
58518;SDS011;44310;48.106;12.008;2023-04-16T05:24:15;0.20;;;0.20;;
58518;SDS011;44310;48.106;12.008;2023-04-16T05:26:42;0.20;;;0.20;;
58518;SDS011;44310;48.106;12.008;2023-04-16T05:29:09;0.20;;;0.20;;
58518;SDS011;44310;48.106;12.008;2023-04-16T05:31:36;0.20;;;0.20;;
58518;SDS011;44310;48.106;12.008;2023-04-16T05:34:04;0.20;;;0.20;;
58518;SDS011;44310;48.106;12.008;2023-04-16T05:36:31;0.20;;;0.20;;
58518;SDS011;44310;48.106;12.008;2023-04-16T05:38:58;0.20;;;0.20;;
58518;SDS011;44310;48.106;12.008;2023-04-16T05:41:25;0.20;;;0.20;;
58518;SDS011;44310;48.106;12.008;2023-04-16T05:43:52;0.30;;;0.30;;
58518;SDS011;44310;48.106;12.008;2023-04-16T05:46:20;0.20;;;0.20;;
58518;SDS011;44310;48.106;12.008;2023-04-16T05:48:47;0.20;;;0.20;;
58518;SDS011;44310;48.106;12.008;2023-04-16T05:51:14;0.30;;;0.30;;
58518;SDS011;44310;48.106;12.008;2023-04-16T05:53:41;0.20;;;0.20;;
58518;SDS011;44310;48.106;12.008;2023-04-16T05:56:08;0.30;;;0.30;;
58518;SDS011;44310;48.106;12.008;2023-04-16T05:58:35;0.30;;;0.30;;
58518;SDS011;44310;48.106;12.008;2023-04-16T06:01:02;0.30;;;0.30;;
58518;SDS011;44310;48.106;12.008;2023-04-16T06:03:30;0.20;;;0.20;;
58518;SDS011;44310;48.106;12.008;2023-04-16T06:05:57;0.30;;;0.30;;
58518;SDS011;44310;48.106;12.008;2023-04-16T06:08:24;0.30;;;0.30;;
58518;SDS011;44310;48.106;12.008;2023-04-16T06:10:51;0.30;;;0.30;;
58518;SDS011;44310;48.106;12.008;2023-04-16T06:13:19;0.30;;;0.30;;
58518;SDS011;44310;48.106;12.008;2023-04-16T06:15:46;0.20;;;0.20;;
58518;SDS011;44310;48.106;12.008;2023-04-16T06:18:13;0.30;;;0.30;;
58518;SDS011;44310;48.106;12.008;2023-04-16T06:20:40;0.20;;;0.20;;
58518;SDS011;44310;48.106;12.008;2023-04-16T06:23:08;0.20;;;0.20;;
58518;SDS011;44310;48.106;12.008;2023-04-16T06:25:35;0.30;;;0.30;;
58518;SDS011;44310;48.106;12.008;2023-04-16T06:28:02;0.20;;;0.20;;
58518;SDS011;44310;48.106;12.008;2023-04-16T06:30:29;0.30;;;0.30;;
58518;SDS011;44310;48.106;12.008;2023-04-16T06:32:56;0.20;;;0.20;;
58518;SDS011;44310;48.106;12.008;2023-04-16T06:35:23;0.30;;;0.30;;
58518;SDS011;44310;48.106;12.008;2023-04-16T06:37:51;0.30;;;0.30;;
58518;SDS011;44310;48.106;12.008;2023-04-16T06:40:18;0.30;;;0.30;;
58518;SDS011;44310;48.106;12.008;2023-04-16T06:42:45;0.30;;;0.30;;
58518;SDS011;44310;48.106;12.008;2023-04-16T06:45:12;0.30;;;0.30;;
58518;SDS011;44310;48.106;12.008;2023-04-16T06:47:39;0.30;;;0.30;;
58518;SDS011;44310;48.106;12.008;2023-04-16T06:50:06;0.30;;;0.30;;
58518;SDS011;44310;48.106;12.008;2023-04-16T06:52:34;0.50;;;0.50;;
58518;SDS011;44310;48.106;12.008;2023-04-16T06:55:01;0.30;;;0.30;;
58518;SDS011;44310;48.106;12.008;2023-04-16T06:57:28;0.40;;;0.40;;
58518;SDS011;44310;48.106;12.008;2023-04-16T06:59:55;0.50;;;0.50;;
58518;SDS011;44310;48.106;12.008;2023-04-16T07:02:22;0.40;;;0.40;;
58518;SDS011;44310;48.106;12.008;2023-04-16T07:04:50;0.40;;;0.40;;
58518;SDS011;44310;48.106;12.008;2023-04-16T07:07:18;0.50;;;0.50;;
58518;SDS011;44310;48.106;12.008;2023-04-16T07:09:45;0.47;;;0.47;;
58518;SDS011;44310;48.106;12.008;2023-04-16T07:12:12;0.50;;;0.50;;
58518;SDS011;44310;48.106;12.008;2023-04-16T07:14:39;0.40;;;0.40;;
58518;SDS011;44310;48.106;12.008;2023-04-16T07:17:07;0.30;;;0.30;;
58518;SDS011;44310;48.106;12.008;2023-04-16T07:19:34;0.30;;;0.30;;
58518;SDS011;44310;48.106;12.008;2023-04-16T07:22:02;0.40;;;0.40;;
58518;SDS011;44310;48.106;12.008;2023-04-16T07:24:30;0.30;;;0.30;;
58518;SDS011;44310;48.106;12.008;2023-04-16T07:26:57;0.30;;;0.30;;
58518;SDS011;44310;48.106;12.008;2023-04-16T07:29:24;0.22;;;0.22;;
58518;SDS011;44310;48.106;12.008;2023-04-16T07:31:52;0.30;;;0.30;;
58518;SDS011;44310;48.106;12.008;2023-04-16T07:34:19;0.40;;;0.40;;
58518;SDS011;44310;48.106;12.008;2023-04-16T07:36:46;0.30;;;0.30;;
58518;SDS011;44310;48.106;12.008;2023-04-16T07:39:13;0.30;;;0.30;;
58518;SDS011;44310;48.106;12.008;2023-04-16T07:41:40;0.35;;;0.35;;
58518;SDS011;44310;48.106;12.008;2023-04-16T07:44:08;0.30;;;0.30;;
58518;SDS011;44310;48.106;12.008;2023-04-16T07:46:35;0.30;;;0.30;;
58518;SDS011;44310;48.106;12.008;2023-04-16T07:49:13;0.30;;;0.30;;
58518;SDS011;44310;48.106;12.008;2023-04-16T07:51:40;0.30;;;0.30;;
58518;SDS011;44310;48.106;12.008;2023-04-16T07:54:08;0.30;;;0.30;;
58518;SDS011;44310;48.106;12.008;2023-04-16T07:56:36;0.30;;;0.30;;
58518;SDS011;44310;48.106;12.008;2023-04-16T07:59:03;0.30;;;0.30;;
58518;SDS011;44310;48.106;12.008;2023-04-16T08:01:48;0.30;;;0.30;;
58518;SDS011;44310;48.106;12.008;2023-04-16T08:04:18;0.30;;;0.30;;
58518;SDS011;44310;48.106;12.008;2023-04-16T08:06:50;0.20;;;0.20;;
58518;SDS011;44310;48.106;12.008;2023-04-16T08:09:18;0.20;;;0.20;;
58518;SDS011;44310;48.106;12.008;2023-04-16T08:11:46;0.27;;;0.27;;
58518;SDS011;44310;48.106;12.008;2023-04-16T08:14:15;0.20;;;0.20;;
58518;SDS011;44310;48.106;12.008;2023-04-16T08:16:43;0.25;;;0.25;;
58518;SDS011;44310;48.106;12.008;2023-04-16T08:19:10;0.20;;;0.20;;
58518;SDS011;44310;48.106;12.008;2023-04-16T08:21:38;0.30;;;0.30;;
58518;SDS011;44310;48.106;12.008;2023-04-16T08:24:05;0.20;;;0.20;;
58518;SDS011;44310;48.106;12.008;2023-04-16T08:26:32;0.20;;;0.20;;
58518;SDS011;44310;48.106;12.008;2023-04-16T08:28:59;0.20;;;0.20;;
58518;SDS011;44310;48.106;12.008;2023-04-16T08:31:27;0.20;;;0.20;;
58518;SDS011;44310;48.106;12.008;2023-04-16T08:33:54;0.20;;;0.20;;
58518;SDS011;44310;48.106;12.008;2023-04-16T08:36:21;0.20;;;0.20;;
58518;SDS011;44310;48.106;12.008;2023-04-16T08:38:48;0.20;;;0.20;;
58518;SDS011;44310;48.106;12.008;2023-04-16T08:41:16;0.30;;;0.30;;
58518;SDS011;44310;48.106;12.008;2023-04-16T08:43:44;0.20;;;0.20;;
58518;SDS011;44310;48.106;12.008;2023-04-16T08:46:13;0.20;;;0.20;;
58518;SDS011;44310;48.106;12.008;2023-04-16T08:48:43;0.20;;;0.20;;
58518;SDS011;44310;48.106;12.008;2023-04-16T08:51:14;0.20;;;0.20;;
58518;SDS011;44310;48.106;12.008;2023-04-16T08:53:53;0.30;;;0.30;;
58518;SDS011;44310;48.106;12.008;2023-04-16T08:56:28;0.30;;;0.30;;
58518;SDS011;44310;48.106;12.008;2023-04-16T08:58:57;0.30;;;0.30;;
58518;SDS011;44310;48.106;12.008;2023-04-16T09:01:27;0.20;;;0.20;;
58518;SDS011;44310;48.106;12.008;2023-04-16T09:03:54;0.30;;;0.30;;
58518;SDS011;44310;48.106;12.008;2023-04-16T09:06:22;0.20;;;0.20;;
58518;SDS011;44310;48.106;12.008;2023-04-16T09:08:49;0.30;;;0.30;;
58518;SDS011;44310;48.106;12.008;2023-04-16T09:11:19;0.20;;;0.20;;
58518;SDS011;44310;48.106;12.008;2023-04-16T09:13:46;0.20;;;0.20;;
58518;SDS011;44310;48.106;12.008;2023-04-16T09:16:13;0.30;;;0.30;;
58518;SDS011;44310;48.106;12.008;2023-04-16T09:18:41;0.20;;;0.20;;
58518;SDS011;44310;48.106;12.008;2023-04-16T09:21:08;0.25;;;0.25;;
58518;SDS011;44310;48.106;12.008;2023-04-16T09:23:36;0.20;;;0.20;;
58518;SDS011;44310;48.106;12.008;2023-04-16T09:26:04;0.30;;;0.30;;
58518;SDS011;44310;48.106;12.008;2023-04-16T09:28:38;0.20;;;0.20;;
58518;SDS011;44310;48.106;12.008;2023-04-16T09:31:13;0.20;;;0.20;;
58518;SDS011;44310;48.106;12.008;2023-04-16T09:33:43;0.20;;;0.20;;
58518;SDS011;44310;48.106;12.008;2023-04-16T09:36:26;0.20;;;0.20;;
58518;SDS011;44310;48.106;12.008;2023-04-16T09:38:53;0.20;;;0.20;;
58518;SDS011;44310;48.106;12.008;2023-04-16T09:41:24;0.20;;;0.20;;
58518;SDS011;44310;48.106;12.008;2023-04-16T09:46:21;0.20;;;0.20;;
58518;SDS011;44310;48.106;12.008;2023-04-16T09:49:03;0.20;;;0.20;;
58518;SDS011;44310;48.106;12.008;2023-04-16T09:51:35;0.28;;;0.28;;
58518;SDS011;44310;48.106;12.008;2023-04-16T09:54:03;0.30;;;0.30;;
58518;SDS011;44310;48.106;12.008;2023-04-16T09:56:32;0.20;;;0.20;;
58518;SDS011;44310;48.106;12.008;2023-04-16T09:58:59;0.30;;;0.30;;
58518;SDS011;44310;48.106;12.008;2023-04-16T10:01:26;0.20;;;0.20;;
58518;SDS011;44310;48.106;12.008;2023-04-16T10:03:57;0.30;;;0.30;;
58518;SDS011;44310;48.106;12.008;2023-04-16T10:06:24;0.30;;;0.30;;
58518;SDS011;44310;48.106;12.008;2023-04-16T10:08:52;0.20;;;0.20;;
58518;SDS011;44310;48.106;12.008;2023-04-16T10:11:22;0.30;;;0.30;;
58518;SDS011;44310;48.106;12.008;2023-04-16T10:13:50;0.30;;;0.30;;
58518;SDS011;44310;48.106;12.008;2023-04-16T10:16:17;0.25;;;0.25;;
58518;SDS011;44310;48.106;12.008;2023-04-16T10:18:44;0.30;;;0.30;;
58518;SDS011;44310;48.106;12.008;2023-04-16T10:21:13;0.30;;;0.30;;
58518;SDS011;44310;48.106;12.008;2023-04-16T10:23:42;0.30;;;0.30;;
58518;SDS011;44310;48.106;12.008;2023-04-16T10:26:09;0.38;;;0.38;;
58518;SDS011;44310;48.106;12.008;2023-04-16T10:28:37;0.40;;;0.40;;
58518;SDS011;44310;48.106;12.008;2023-04-16T10:31:05;0.30;;;0.30;;
58518;SDS011;44310;48.106;12.008;2023-04-16T10:33:35;0.30;;;0.30;;
58518;SDS011;44310;48.106;12.008;2023-04-16T10:36:11;0.30;;;0.30;;
58518;SDS011;44310;48.106;12.008;2023-04-16T10:38:41;0.20;;;0.20;;
58518;SDS011;44310;48.106;12.008;2023-04-16T10:41:12;0.30;;;0.30;;
58518;SDS011;44310;48.106;12.008;2023-04-16T10:43:41;0.20;;;0.20;;
58518;SDS011;44310;48.106;12.008;2023-04-16T10:46:45;0.30;;;0.30;;
58518;SDS011;44310;48.106;12.008;2023-04-16T10:49:14;0.20;;;0.20;;
58518;SDS011;44310;48.106;12.008;2023-04-16T10:52:29;0.20;;;0.20;;
58518;SDS011;44310;48.106;12.008;2023-04-16T10:54:50;0.20;;;0.20;;
58518;SDS011;44310;48.106;12.008;2023-04-16T10:57:18;0.30;;;0.30;;
58518;SDS011;44310;48.106;12.008;2023-04-16T10:59:47;0.20;;;0.20;;
58518;SDS011;44310;48.106;12.008;2023-04-16T11:02:15;0.20;;;0.20;;
58518;SDS011;44310;48.106;12.008;2023-04-16T11:04:45;0.20;;;0.20;;
58518;SDS011;44310;48.106;12.008;2023-04-16T11:07:15;0.20;;;0.20;;
58518;SDS011;44310;48.106;12.008;2023-04-16T11:09:56;0.28;;;0.28;;
58518;SDS011;44310;48.106;12.008;2023-04-16T11:12:40;0.20;;;0.20;;
58518;SDS011;44310;48.106;12.008;2023-04-16T11:17:39;0.20;;;0.20;;
58518;SDS011;44310;48.106;12.008;2023-04-16T11:20:07;0.30;;;0.30;;
58518;SDS011;44310;48.106;12.008;2023-04-16T11:22:49;0.30;;;0.30;;
58518;SDS011;44310;48.106;12.008;2023-04-16T11:25:18;0.30;;;0.30;;
58518;SDS011;44310;48.106;12.008;2023-04-16T11:27:50;0.30;;;0.30;;
58518;SDS011;44310;48.106;12.008;2023-04-16T11:30:18;0.30;;;0.30;;
58518;SDS011;44310;48.106;12.008;2023-04-16T11:32:57;0.20;;;0.20;;
58518;SDS011;44310;48.106;12.008;2023-04-16T11:35:24;0.30;;;0.30;;
58518;SDS011;44310;48.106;12.008;2023-04-16T11:37:54;0.30;;;0.30;;
58518;SDS011;44310;48.106;12.008;2023-04-16T11:40:22;0.35;;;0.35;;
58518;SDS011;44310;48.106;12.008;2023-04-16T11:42:50;0.22;;;0.22;;
58518;SDS011;44310;48.106;12.008;2023-04-16T11:45:17;0.30;;;0.30;;
58518;SDS011;44310;48.106;12.008;2023-04-16T11:47:49;0.30;;;0.30;;
58518;SDS011;44310;48.106;12.008;2023-04-16T11:50:21;0.30;;;0.30;;
58518;SDS011;44310;48.106;12.008;2023-04-16T11:52:54;0.28;;;0.28;;
58518;SDS011;44310;48.106;12.008;2023-04-16T11:55:23;0.30;;;0.30;;
58518;SDS011;44310;48.106;12.008;2023-04-16T11:57:50;0.20;;;0.20;;
58518;SDS011;44310;48.106;12.008;2023-04-16T12:00:18;0.22;;;0.22;;
58518;SDS011;44310;48.106;12.008;2023-04-16T12:02:51;0.20;;;0.20;;
58518;SDS011;44310;48.106;12.008;2023-04-16T12:05:30;0.25;;;0.25;;
58518;SDS011;44310;48.106;12.008;2023-04-16T12:07:58;0.20;;;0.20;;
58518;SDS011;44310;48.106;12.008;2023-04-16T12:10:33;0.30;;;0.30;;
58518;SDS011;44310;48.106;12.008;2023-04-16T12:13:18;0.20;;;0.20;;
58518;SDS011;44310;48.106;12.008;2023-04-16T12:15:49;0.30;;;0.30;;
58518;SDS011;44310;48.106;12.008;2023-04-16T12:18:18;0.20;;;0.20;;
58518;SDS011;44310;48.106;12.008;2023-04-16T12:20:48;0.30;;;0.30;;
58518;SDS011;44310;48.106;12.008;2023-04-16T12:23:29;0.30;;;0.30;;
58518;SDS011;44310;48.106;12.008;2023-04-16T12:26:05;0.30;;;0.30;;
58518;SDS011;44310;48.106;12.008;2023-04-16T12:28:36;0.30;;;0.30;;
58518;SDS011;44310;48.106;12.008;2023-04-16T12:31:04;0.30;;;0.30;;
58518;SDS011;44310;48.106;12.008;2023-04-16T12:33:32;0.35;;;0.35;;
58518;SDS011;44310;48.106;12.008;2023-04-16T12:35:59;0.30;;;0.30;;
58518;SDS011;44310;48.106;12.008;2023-04-16T12:38:28;0.32;;;0.32;;
58518;SDS011;44310;48.106;12.008;2023-04-16T12:40:55;0.32;;;0.32;;
58518;SDS011;44310;48.106;12.008;2023-04-16T12:43:23;0.30;;;0.30;;
58518;SDS011;44310;48.106;12.008;2023-04-16T12:45:51;0.30;;;0.30;;
58518;SDS011;44310;48.106;12.008;2023-04-16T12:48:18;0.30;;;0.30;;
58518;SDS011;44310;48.106;12.008;2023-04-16T12:50:46;0.30;;;0.30;;
58518;SDS011;44310;48.106;12.008;2023-04-16T12:53:13;0.30;;;0.30;;
58518;SDS011;44310;48.106;12.008;2023-04-16T12:55:40;0.30;;;0.30;;
58518;SDS011;44310;48.106;12.008;2023-04-16T12:58:07;0.30;;;0.30;;
58518;SDS011;44310;48.106;12.008;2023-04-16T13:00:38;0.65;;;0.65;;
58518;SDS011;44310;48.106;12.008;2023-04-16T13:03:05;0.50;;;0.50;;
58518;SDS011;44310;48.106;12.008;2023-04-16T13:05:33;0.30;;;0.30;;
58518;SDS011;44310;48.106;12.008;2023-04-16T13:08:00;0.30;;;0.30;;
58518;SDS011;44310;48.106;12.008;2023-04-16T13:10:27;0.30;;;0.30;;
58518;SDS011;44310;48.106;12.008;2023-04-16T13:12:54;0.45;;;0.45;;
58518;SDS011;44310;48.106;12.008;2023-04-16T13:15:22;0.57;;;0.57;;
58518;SDS011;44310;48.106;12.008;2023-04-16T13:17:49;0.50;;;0.50;;
58518;SDS011;44310;48.106;12.008;2023-04-16T13:20:16;0.50;;;0.50;;
58518;SDS011;44310;48.106;12.008;2023-04-16T13:22:43;0.30;;;0.30;;
58518;SDS011;44310;48.106;12.008;2023-04-16T13:25:10;0.40;;;0.40;;
58518;SDS011;44310;48.106;12.008;2023-04-16T13:27:37;0.40;;;0.40;;
58518;SDS011;44310;48.106;12.008;2023-04-16T13:30:05;0.35;;;0.35;;
58518;SDS011;44310;48.106;12.008;2023-04-16T13:32:33;0.40;;;0.40;;
58518;SDS011;44310;48.106;12.008;2023-04-16T13:35:00;0.30;;;0.30;;
58518;SDS011;44310;48.106;12.008;2023-04-16T13:37:27;0.30;;;0.30;;
58518;SDS011;44310;48.106;12.008;2023-04-16T13:39:54;0.20;;;0.20;;
58518;SDS011;44310;48.106;12.008;2023-04-16T13:42:22;0.20;;;0.20;;
58518;SDS011;44310;48.106;12.008;2023-04-16T13:44:49;0.22;;;0.22;;
58518;SDS011;44310;48.106;12.008;2023-04-16T13:47:19;0.20;;;0.20;;
58518;SDS011;44310;48.106;12.008;2023-04-16T13:49:47;0.20;;;0.20;;
58518;SDS011;44310;48.106;12.008;2023-04-16T13:52:14;0.30;;;0.30;;
58518;SDS011;44310;48.106;12.008;2023-04-16T13:54:42;0.30;;;0.30;;
58518;SDS011;44310;48.106;12.008;2023-04-16T13:57:09;0.50;;;0.50;;
58518;SDS011;44310;48.106;12.008;2023-04-16T13:59:38;0.65;;;0.65;;
58518;SDS011;44310;48.106;12.008;2023-04-16T14:02:05;0.50;;;0.50;;
58518;SDS011;44310;48.106;12.008;2023-04-16T14:04:33;0.50;;;0.50;;
58518;SDS011;44310;48.106;12.008;2023-04-16T14:07:00;0.50;;;0.50;;
58518;SDS011;44310;48.106;12.008;2023-04-16T14:09:27;0.50;;;0.50;;
58518;SDS011;44310;48.106;12.008;2023-04-16T14:11:54;0.40;;;0.40;;
58518;SDS011;44310;48.106;12.008;2023-04-16T14:14:21;0.40;;;0.40;;
58518;SDS011;44310;48.106;12.008;2023-04-16T14:16:48;0.40;;;0.40;;
58518;SDS011;44310;48.106;12.008;2023-04-16T14:19:16;0.40;;;0.40;;
58518;SDS011;44310;48.106;12.008;2023-04-16T14:21:43;0.50;;;0.50;;
58518;SDS011;44310;48.106;12.008;2023-04-16T14:24:10;0.40;;;0.40;;
58518;SDS011;44310;48.106;12.008;2023-04-16T14:26:37;0.50;;;0.50;;
58518;SDS011;44310;48.106;12.008;2023-04-16T14:29:04;0.40;;;0.40;;
58518;SDS011;44310;48.106;12.008;2023-04-16T14:31:31;0.50;;;0.50;;
58518;SDS011;44310;48.106;12.008;2023-04-16T14:33:59;0.40;;;0.40;;
58518;SDS011;44310;48.106;12.008;2023-04-16T14:36:26;0.30;;;0.30;;
58518;SDS011;44310;48.106;12.008;2023-04-16T14:38:53;0.40;;;0.40;;
58518;SDS011;44310;48.106;12.008;2023-04-16T14:41:20;0.40;;;0.40;;
58518;SDS011;44310;48.106;12.008;2023-04-16T14:43:47;0.40;;;0.40;;
58518;SDS011;44310;48.106;12.008;2023-04-16T14:46:14;0.30;;;0.30;;